Time;durP1;ratioP1;P1;durP2;ratioP2;P2;SDS_P1;SDS_P2;PMS_P1;PMS_P2;Temp;Humidity;BMP_temperature;BMP_pressure;BME280_temperature;BME280_humidity;BME280_pressure;Samples;Min_cycle;Max_cycle;Signal;HPM_P1;HPM_P2
2023/03/24 00:01:01;;;;;;;13.87;4.00;;;12.90;31.20;;;;;;5031849;28;46383;-66
2023/03/24 00:03:28;;;;;;;6.50;3.97;;;12.90;31.20;;;;;;5030668;28;46441;-66
2023/03/24 00:05:57;;;;;;;7.27;4.57;;;12.80;31.10;;;;;;5029177;28;46438;-66
2023/03/24 00:08:23;;;;;;;11.40;4.53;;;12.80;31.50;;;;;;5027899;28;47074;-66
2023/03/24 00:10:49;;;;;;;9.47;4.50;;;12.80;31.50;;;;;;5033078;28;46336;-66
2023/03/24 00:13:15;;;;;;;10.43;4.20;;;12.70;31.60;;;;;;5031410;28;45867;-67
2023/03/24 00:15:41;;;;;;;7.27;4.17;;;12.70;31.70;;;;;;5029256;28;46491;-67
2023/03/24 00:18:09;;;;;;;5.37;3.70;;;12.70;31.70;;;;;;5029013;28;46415;-67
2023/03/24 00:20:35;;;;;;;5.83;3.60;;;12.70;31.70;;;;;;5031709;28;45862;-66
2023/03/24 00:23:00;;;;;;;7.50;4.30;;;12.70;31.80;;;;;;5032006;28;46300;-66
2023/03/24 00:25:32;;;;;;;6.53;3.43;;;12.80;31.90;;;;;;5027626;28;46373;-66
2023/03/24 00:27:58;;;;;;;7.57;3.50;;;12.80;31.90;;;;;;5028024;28;47364;-66
2023/03/24 00:30:24;;;;;;;10.60;3.70;;;12.80;31.80;;;;;;5031353;28;46393;-67
2023/03/24 00:32:51;;;;;;;7.50;3.43;;;12.80;31.60;;;;;;5030054;28;46376;-66
2023/03/24 00:35:17;;;;;;;6.83;3.20;;;12.90;31.60;;;;;;5028698;28;46693;-67
2023/03/24 00:37:43;;;;;;;5.73;3.40;;;12.90;31.50;;;;;;5029835;28;47003;-66
2023/03/24 00:40:15;;;;;;;5.13;3.30;;;12.90;31.50;;;;;;5028878;28;46485;-65
2023/03/24 00:42:44;;;;;;;9.20;4.10;;;12.90;31.40;;;;;;5028483;28;46419;-65
2023/03/24 00:45:15;;;;;;;6.87;3.60;;;12.90;31.50;;;;;;5026837;28;46612;-66
2023/03/24 00:47:43;;;;;;;6.20;3.77;;;12.80;31.70;;;;;;5030736;28;47111;-65
2023/03/24 00:50:14;;;;;;;6.70;4.00;;;12.80;31.70;;;;;;5030069;28;46434;-66
2023/03/24 00:52:43;;;;;;;5.70;3.60;;;12.90;31.60;;;;;;5026916;28;46480;-65
2023/03/24 00:55:12;;;;;;;7.27;3.53;;;12.90;31.60;;;;;;5028413;28;45851;-67
2023/03/24 00:57:39;;;;;;;8.70;3.47;;;12.90;31.30;;;;;;5029815;28;48077;-66
2023/03/24 01:00:13;;;;;;;6.07;3.40;;;13.00;31.20;;;;;;5027006;28;46485;-67
2023/03/24 01:02:39;;;;;;;7.73;4.30;;;13.00;31.10;;;;;;5027425;28;46436;-65
2023/03/24 01:05:05;;;;;;;5.97;3.50;;;13.00;30.90;;;;;;5031645;28;47094;-67
2023/03/24 01:07:32;;;;;;;6.67;3.60;;;13.10;30.80;;;;;;5028270;28;46978;-67
2023/03/24 01:09:58;;;;;;;8.30;4.00;;;13.10;30.50;;;;;;5027117;28;46344;-66
2023/03/24 01:12:32;;;;;;;7.43;3.80;;;13.20;30.50;;;;;;5031533;28;46425;-67
2023/03/24 01:14:59;;;;;;;7.63;3.40;;;13.20;30.50;;;;;;5027406;28;46546;-66
2023/03/24 01:17:25;;;;;;;5.73;3.40;;;13.20;30.30;;;;;;5035426;28;46589;-66
2023/03/24 01:19:52;;;;;;;6.80;3.17;;;13.20;30.10;;;;;;5032868;28;45908;-66
2023/03/24 01:22:19;;;;;;;7.77;3.20;;;13.20;30.00;;;;;;5032207;28;46389;-66
2023/03/24 01:24:48;;;;;;;8.73;4.00;;;13.30;30.00;;;;;;5031669;28;46395;-66
2023/03/24 01:27:14;;;;;;;5.90;3.87;;;13.20;30.00;;;;;;5028217;28;46342;-66
2023/03/24 01:29:41;;;;;;;13.10;3.87;;;13.20;30.10;;;;;;5028283;28;46477;-65
2023/03/24 01:32:06;;;;;;;6.43;4.10;;;13.20;30.10;;;;;;5029870;28;46616;-67
2023/03/24 01:34:32;;;;;;;6.27;4.27;;;13.20;30.40;;;;;;5029063;28;46666;-67
2023/03/24 01:36:59;;;;;;;7.37;4.00;;;13.10;30.70;;;;;;5026197;28;46458;-66
2023/03/24 01:39:25;;;;;;;7.20;4.40;;;13.10;31.00;;;;;;5028652;28;46408;-67
2023/03/24 01:41:50;;;;;;;6.37;4.33;;;13.10;31.10;;;;;;5030658;28;46416;-66
2023/03/24 01:44:36;;;;;;;6.40;4.00;;;13.10;31.10;;;;;;5027317;28;46485;-67
2023/03/24 01:47:06;;;;;;;6.80;3.57;;;13.10;31.10;;;;;;5028323;28;46481;-67
2023/03/24 01:49:40;;;;;;;5.87;3.90;;;13.10;31.20;;;;;;5029843;28;46350;-67
2023/03/24 01:52:12;;;;;;;8.43;3.90;;;13.00;31.30;;;;;;5029000;28;45863;-67
2023/03/24 01:54:46;;;;;;;6.77;3.80;;;13.10;31.40;;;;;;5028420;28;46563;-66
2023/03/24 01:57:22;;;;;;;5.30;3.10;;;13.10;31.20;;;;;;5028463;28;47027;-66
2023/03/24 01:59:50;;;;;;;9.73;4.30;;;13.10;31.20;;;;;;5032728;28;46457;-67
2023/03/24 02:02:17;;;;;;;6.40;3.90;;;13.20;31.20;;;;;;5030763;28;46460;-66
2023/03/24 02:04:47;;;;;;;6.40;4.00;;;13.20;31.20;;;;;;5030660;28;46297;-66
2023/03/24 02:07:33;;;;;;;6.87;4.13;;;13.20;31.10;;;;;;5027585;28;46675;-66
2023/03/24 02:10:04;;;;;;;5.40;3.63;;;13.20;31.10;;;;;;5031212;28;46283;-66
2023/03/24 02:12:31;;;;;;;6.60;3.80;;;13.20;31.20;;;;;;5030188;28;46481;-65
2023/03/24 02:14:57;;;;;;;6.37;3.60;;;13.20;31.20;;;;;;5023354;28;46444;-66
2023/03/24 02:17:36;;;;;;;6.10;3.70;;;13.20;31.30;;;;;;5029161;28;46405;-66
2023/03/24 02:20:03;;;;;;;7.23;3.90;;;13.20;31.20;;;;;;5027909;28;46644;-66
2023/03/24 02:22:55;;;;;;;12.57;4.20;;;13.20;31.50;;;;;;5029704;28;46405;-66
2023/03/24 02:25:40;;;;;;;6.60;4.33;;;13.10;31.60;;;;;;5028146;28;46681;-66
2023/03/24 02:28:11;;;;;;;6.70;3.83;;;13.00;32.30;;;;;;5032234;28;46664;-66
2023/03/24 02:31:00;;;;;;;9.00;4.40;;;12.90;32.50;;;;;;5030619;28;46456;-66
2023/03/24 02:33:50;;;;;;;6.13;4.20;;;12.80;33.00;;;;;;5027022;28;46443;-66
2023/03/24 02:36:32;;;;;;;7.40;4.10;;;12.80;33.10;;;;;;5031691;28;46658;-66
2023/03/24 02:39:31;;;;;;;6.70;3.90;;;12.80;33.00;;;;;;5028190;28;46581;-65
2023/03/24 02:42:09;;;;;;;5.87;3.70;;;12.80;32.90;;;;;;5027787;28;45920;-66
2023/03/24 02:44:46;;;;;;;11.20;4.20;;;12.80;33.20;;;;;;5028027;28;46669;-66
2023/03/24 02:47:38;;;;;;;9.40;4.30;;;12.70;33.80;;;;;;5028132;28;46534;-66
2023/03/24 02:50:09;;;;;;;12.23;3.83;;;12.70;34.20;;;;;;5027452;28;46635;-67
2023/03/24 02:52:51;;;;;;;8.63;4.70;;;12.60;34.00;;;;;;5030142;28;46445;-66
2023/03/24 02:55:24;;;;;;;7.87;4.40;;;12.60;34.80;;;;;;5028166;28;45896;-66
2023/03/24 02:57:55;;;;;;;6.97;4.43;;;12.60;34.80;;;;;;5028897;28;46383;-66
2023/03/24 03:00:46;;;;;;;9.20;4.03;;;12.60;35.10;;;;;;5027747;28;46790;-66
2023/03/24 03:03:24;;;;;;;9.40;3.83;;;12.50;35.50;;;;;;5026681;28;45919;-66
2023/03/24 03:05:57;;;;;;;6.17;3.90;;;12.50;35.50;;;;;;5025833;28;46453;-66
2023/03/24 03:08:26;;;;;;;6.77;3.43;;;12.50;35.50;;;;;;5027657;28;46453;-66
2023/03/24 03:10:53;;;;;;;7.97;4.77;;;12.50;35.80;;;;;;5029374;28;46682;-66
2023/03/24 03:13:42;;;;;;;9.97;4.30;;;12.50;35.80;;;;;;5032460;28;46408;-66
2023/03/24 03:16:24;;;;;;;7.07;4.00;;;12.50;36.10;;;;;;5023705;28;46548;-66
2023/03/24 03:18:57;;;;;;;13.13;4.67;;;12.50;36.00;;;;;;5026693;28;45842;-66
2023/03/24 03:21:27;;;;;;;7.73;4.20;;;12.50;35.60;;;;;;5026687;28;46568;-66
2023/03/24 03:24:01;;;;;;;7.70;4.17;;;12.60;35.50;;;;;;5027630;28;45791;-66
2023/03/24 03:26:31;;;;;;;6.20;4.20;;;12.50;35.60;;;;;;5027919;28;46789;-66
2023/03/24 03:29:15;;;;;;;6.70;3.87;;;12.50;35.50;;;;;;5026282;28;45834;-66
2023/03/24 03:31:51;;;;;;;5.63;3.80;;;12.50;35.50;;;;;;5027240;28;46565;-66
2023/03/24 03:34:34;;;;;;;7.60;4.07;;;12.50;35.50;;;;;;5025768;28;46338;-66
2023/03/24 03:37:05;;;;;;;8.50;3.47;;;12.50;35.40;;;;;;5033667;28;46674;-66
2023/03/24 03:39:37;;;;;;;8.80;3.90;;;12.50;35.50;;;;;;5032615;28;46553;-66
2023/03/24 03:42:05;;;;;;;9.20;4.03;;;12.40;35.50;;;;;;5032411;28;47001;-66
2023/03/24 03:44:31;;;;;;;8.93;4.50;;;12.40;35.50;;;;;;5035179;28;45834;-65
2023/03/24 03:46:57;;;;;;;7.03;3.40;;;12.40;35.70;;;;;;5029832;28;46680;-66
2023/03/24 03:49:24;;;;;;;6.50;3.53;;;12.40;35.60;;;;;;5031355;28;46417;-66
2023/03/24 03:51:51;;;;;;;5.60;3.93;;;12.40;35.50;;;;;;5035438;28;46386;-67
2023/03/24 03:54:18;;;;;;;7.10;4.33;;;12.40;35.50;;;;;;5031619;28;46565;-67
2023/03/24 03:56:45;;;;;;;7.07;3.80;;;12.50;35.50;;;;;;5029560;28;46445;-66
2023/03/24 03:59:24;;;;;;;9.27;4.93;;;12.50;35.40;;;;;;5029673;28;46409;-67
2023/03/24 04:01:50;;;;;;;7.40;3.90;;;12.50;35.50;;;;;;5037385;28;47397;-66
2023/03/24 04:04:51;;;;;;;7.37;4.13;;;12.50;35.50;;;;;;5034773;28;46765;-67
2023/03/24 04:07:43;;;;;;;9.40;4.00;;;12.50;35.80;;;;;;5026324;28;46547;-67
2023/03/24 04:10:19;;;;;;;6.07;3.27;;;12.40;35.80;;;;;;5028460;28;45822;-67
2023/03/24 04:13:03;;;;;;;8.97;3.27;;;12.40;35.80;;;;;;5027595;28;46647;-67
2023/03/24 04:15:37;;;;;;;8.20;4.33;;;12.50;35.90;;;;;;5030025;28;46463;-66
2023/03/24 04:18:24;;;;;;;7.30;4.13;;;12.40;35.70;;;;;;5031521;28;46083;-67
2023/03/24 04:21:11;;;;;;;6.70;3.73;;;12.40;35.80;;;;;;5029895;28;45799;-67
2023/03/24 04:24:05;;;;;;;5.87;3.47;;;12.40;35.80;;;;;;5033131;28;47135;-66
2023/03/24 04:26:53;;;;;;;7.50;4.20;;;12.40;36.10;;;;;;5029357;28;46376;-66
2023/03/24 04:29:41;;;;;;;9.00;3.23;;;12.30;36.20;;;;;;5030836;28;46346;-67
2023/03/24 04:32:18;;;;;;;10.73;3.90;;;12.30;36.50;;;;;;5028563;28;47038;-67
2023/03/24 04:34:49;;;;;;;6.17;3.47;;;12.20;36.50;;;;;;5029293;28;46536;-67
2023/03/24 04:37:25;;;;;;;6.73;3.43;;;12.20;36.60;;;;;;5024365;28;46895;-66
2023/03/24 04:39:57;;;;;;;6.20;3.77;;;12.20;36.90;;;;;;5029183;28;45853;-66
2023/03/24 04:42:36;;;;;;;8.53;4.33;;;12.20;36.70;;;;;;5028060;28;46350;-66
2023/03/24 04:45:05;;;;;;;4.80;3.50;;;12.20;36.70;;;;;;5027643;28;46506;-65
2023/03/24 04:47:41;;;;;;;9.10;4.07;;;12.20;36.80;;;;;;5024651;28;46212;-66
2023/03/24 04:50:10;;;;;;;7.93;3.87;;;12.20;36.90;;;;;;5027926;28;46472;-67
2023/03/24 04:52:40;;;;;;;5.70;3.73;;;12.10;36.90;;;;;;5030654;28;46726;-67
2023/03/24 04:55:28;;;;;;;13.00;4.50;;;12.20;37.20;;;;;;5029696;28;46657;-67
2023/03/24 04:57:53;;;;;;;7.53;4.43;;;12.10;37.50;;;;;;5030398;28;46401;-66
2023/03/24 05:00:19;;;;;;;12.37;4.50;;;12.10;37.60;;;;;;5027688;28;46486;-66
2023/03/24 05:02:45;;;;;;;6.63;4.70;;;12.10;37.80;;;;;;5032527;28;46354;-66
2023/03/24 05:05:11;;;;;;;8.77;4.07;;;12.10;37.80;;;;;;5028691;28;47030;-67
2023/03/24 05:07:37;;;;;;;10.13;4.70;;;12.10;38.00;;;;;;5029377;28;46385;-67
2023/03/24 05:10:02;;;;;;;6.53;4.17;;;12.10;38.20;;;;;;5032259;28;46367;-66
2023/03/24 05:12:28;;;;;;;6.23;3.87;;;12.10;38.30;;;;;;5028363;28;46315;-67
2023/03/24 05:14:54;;;;;;;7.00;4.30;;;12.10;38.30;;;;;;5027285;28;46015;-67
2023/03/24 05:17:19;;;;;;;7.60;4.77;;;12.20;38.40;;;;;;5033286;28;46458;-66
2023/03/24 05:19:45;;;;;;;7.37;4.43;;;12.20;38.50;;;;;;5029595;28;46351;-67
2023/03/24 05:22:10;;;;;;;9.03;4.40;;;12.20;38.50;;;;;;5030114;28;46557;-66
2023/03/24 05:24:36;;;;;;;7.57;4.13;;;12.20;38.50;;;;;;5029581;28;46245;-66
2023/03/24 05:27:02;;;;;;;6.83;4.00;;;12.30;38.40;;;;;;5030530;28;46396;-67
2023/03/24 05:29:27;;;;;;;8.63;4.30;;;12.30;38.20;;;;;;5028548;28;46498;-66
2023/03/24 05:31:53;;;;;;;5.90;4.03;;;12.40;38.20;;;;;;5029176;28;46434;-67
2023/03/24 05:34:21;;;;;;;7.10;4.40;;;12.40;38.10;;;;;;5031607;28;48047;-67
2023/03/24 05:36:46;;;;;;;7.70;5.30;;;12.50;37.80;;;;;;5027894;28;46834;-67
2023/03/24 05:39:12;;;;;;;6.17;4.33;;;12.60;37.40;;;;;;5035300;28;46118;-66
2023/03/24 05:41:37;;;;;;;7.80;3.93;;;12.70;37.20;;;;;;5032111;28;46507;-66
2023/03/24 05:44:03;;;;;;;9.17;4.60;;;12.70;37.20;;;;;;5031236;28;46751;-66
2023/03/24 05:46:29;;;;;;;7.97;4.80;;;12.70;37.20;;;;;;5031192;28;46486;-67
2023/03/24 05:48:54;;;;;;;8.20;4.57;;;12.80;37.30;;;;;;5031170;28;46483;-66
2023/03/24 05:51:20;;;;;;;6.23;4.47;;;12.80;37.20;;;;;;5030386;28;46420;-66
2023/03/24 05:53:46;;;;;;;6.37;4.20;;;12.90;37.30;;;;;;5025623;28;46397;-66
2023/03/24 05:56:11;;;;;;;6.50;4.90;;;12.90;37.30;;;;;;5026383;28;46518;-66
2023/03/24 05:58:38;;;;;;;8.53;4.93;;;12.90;37.40;;;;;;5031103;28;46429;-66
2023/03/24 06:01:10;;;;;;;7.07;4.30;;;13.00;37.30;;;;;;5029038;28;46394;-66
2023/03/24 06:03:40;;;;;;;8.57;4.00;;;13.00;37.10;;;;;;5027602;28;46672;-66
2023/03/24 06:06:07;;;;;;;15.73;4.90;;;13.10;37.10;;;;;;5029337;28;46057;-66
2023/03/24 06:08:34;;;;;;;7.87;4.13;;;13.20;36.90;;;;;;5029043;28;46532;-66
2023/03/24 06:11:01;;;;;;;5.60;3.93;;;13.20;36.60;;;;;;5025782;28;46495;-66
2023/03/24 06:13:28;;;;;;;11.97;4.57;;;13.30;36.60;;;;;;5028164;28;46395;-66
2023/03/24 06:15:57;;;;;;;8.57;3.93;;;13.50;36.40;;;;;;5026651;28;46444;-66
2023/03/24 06:18:25;;;;;;;7.77;4.50;;;13.50;36.10;;;;;;5029836;28;46326;-66
2023/03/24 06:20:55;;;;;;;9.50;4.47;;;13.60;36.00;;;;;;5033032;28;46429;-66
2023/03/24 06:23:26;;;;;;;11.67;4.83;;;13.60;36.00;;;;;;5030221;28;46493;-66
2023/03/24 06:25:52;;;;;;;12.20;4.70;;;13.60;36.00;;;;;;5028917;28;46503;-66
2023/03/24 06:28:18;;;;;;;7.70;4.70;;;13.70;36.00;;;;;;5027479;28;46431;-67
2023/03/24 06:30:46;;;;;;;9.77;3.80;;;13.70;36.10;;;;;;5028207;28;46692;-66
2023/03/24 06:33:15;;;;;;;8.80;5.60;;;13.60;36.30;;;;;;5028162;28;46394;-66
2023/03/24 06:35:40;;;;;;;9.50;5.03;;;13.60;36.30;;;;;;5028873;28;46682;-66
2023/03/24 06:38:07;;;;;;;9.07;5.27;;;13.60;36.40;;;;;;5028618;28;46540;-66
2023/03/24 06:40:33;;;;;;;13.37;8.30;;;13.50;37.60;;;;;;5022616;28;46441;-67
2023/03/24 06:42:59;;;;;;;11.53;6.50;;;13.40;37.60;;;;;;5026216;28;47370;-66
2023/03/24 06:45:25;;;;;;;8.10;5.00;;;13.40;38.10;;;;;;5025078;28;46371;-67
2023/03/24 06:47:55;;;;;;;8.70;4.40;;;13.40;37.90;;;;;;5027832;28;45870;-66
2023/03/24 06:50:21;;;;;;;9.43;4.77;;;13.40;38.10;;;;;;5027679;28;46525;-66
2023/03/24 06:52:47;;;;;;;7.30;4.70;;;13.50;38.20;;;;;;5032519;28;47240;-66
2023/03/24 06:55:13;;;;;;;6.87;4.00;;;13.40;38.10;;;;;;5033325;28;46342;-65
2023/03/24 06:57:39;;;;;;;6.63;4.20;;;13.40;38.30;;;;;;5028430;28;46449;-66
2023/03/24 07:00:07;;;;;;;7.73;5.10;;;13.40;38.40;;;;;;5024492;28;45927;-66
2023/03/24 07:02:34;;;;;;;9.00;4.57;;;13.40;38.40;;;;;;5025480;28;47165;-65
2023/03/24 07:05:05;;;;;;;7.20;4.20;;;13.50;38.50;;;;;;5025541;28;46413;-66
2023/03/24 07:07:31;;;;;;;8.47;5.00;;;13.50;38.40;;;;;;5022942;28;46852;-65
2023/03/24 07:09:57;;;;;;;9.17;4.30;;;13.60;38.40;;;;;;5027222;28;46494;-66
2023/03/24 07:12:23;;;;;;;6.63;4.20;;;13.70;38.40;;;;;;5029599;28;47145;-66
2023/03/24 07:14:49;;;;;;;7.60;5.20;;;13.70;38.30;;;;;;5028204;28;46514;-66
2023/03/24 07:17:14;;;;;;;7.50;4.83;;;13.70;38.60;;;;;;5026782;28;45848;-65
2023/03/24 07:19:40;;;;;;;6.67;4.10;;;13.70;38.50;;;;;;5025028;28;46561;-66
2023/03/24 07:22:07;;;;;;;9.73;4.70;;;13.80;38.30;;;;;;5026766;28;46346;-66
2023/03/24 07:24:34;;;;;;;6.73;4.47;;;13.70;38.40;;;;;;5024551;28;46494;-65
2023/03/24 07:27:00;;;;;;;10.63;4.43;;;13.70;38.70;;;;;;5028114;28;46476;-66
2023/03/24 07:29:25;;;;;;;9.70;4.53;;;13.70;38.80;;;;;;5027514;28;46507;-67
2023/03/24 07:31:52;;;;;;;7.20;4.13;;;13.70;38.70;;;;;;5026426;28;47268;-66
2023/03/24 07:34:17;;;;;;;4.90;3.00;;;13.80;38.80;;;;;;5027109;28;46405;-68
2023/03/24 07:36:43;;;;;;;5.50;3.30;;;13.80;38.80;;;;;;5027666;28;46690;-66
2023/03/24 07:39:09;;;;;;;4.30;3.13;;;13.90;39.00;;;;;;5028313;28;46343;-67
2023/03/24 07:41:35;;;;;;;7.23;3.10;;;13.80;39.20;;;;;;5025421;28;46433;-65
2023/03/24 07:44:01;;;;;;;7.90;3.00;;;13.90;39.40;;;;;;5026136;28;46402;-67
2023/03/24 07:46:27;;;;;;;5.73;3.77;;;13.80;39.80;;;;;;5025481;28;46494;-67
2023/03/24 07:48:52;;;;;;;5.40;3.30;;;13.90;40.10;;;;;;5025197;28;46458;-64
2023/03/24 07:51:18;;;;;;;7.30;3.47;;;13.90;40.00;;;;;;5025443;28;46486;-66
2023/03/24 07:53:46;;;;;;;5.73;3.03;;;13.90;40.10;;;;;;5026149;28;46593;-66
2023/03/24 07:56:12;;;;;;;6.30;3.10;;;13.90;40.20;;;;;;5028099;28;45891;-68
2023/03/24 07:58:38;;;;;;;5.80;3.37;;;13.80;40.50;;;;;;5027459;28;46710;-68
2023/03/24 08:01:09;;;;;;;6.60;3.60;;;13.80;41.10;;;;;;5024664;28;46353;-67
2023/03/24 08:03:35;;;;;;;9.83;3.43;;;13.70;41.60;;;;;;5026446;28;46455;-67
2023/03/24 08:06:01;;;;;;;8.30;4.40;;;13.70;41.80;;;;;;5024389;28;46520;-67
2023/03/24 08:08:27;;;;;;;5.30;3.53;;;13.60;42.20;;;;;;5025380;28;46434;-67
2023/03/24 08:10:53;;;;;;;6.03;3.77;;;13.50;43.10;;;;;;5027536;28;47221;-67
2023/03/24 08:13:19;;;;;;;5.40;3.43;;;13.60;42.60;;;;;;5023714;28;46414;-67
2023/03/24 08:15:45;;;;;;;5.50;3.73;;;13.50;43.20;;;;;;5026977;28;46236;-68
2023/03/24 08:18:10;;;;;;;7.47;3.80;;;13.60;43.40;;;;;;5028856;28;46267;-65
2023/03/24 08:20:36;;;;;;;5.77;4.20;;;13.60;43.00;;;;;;5028978;28;47023;-68
2023/03/24 08:23:03;;;;;;;7.87;4.13;;;13.70;42.80;;;;;;5028124;28;46449;-69
2023/03/24 08:25:29;;;;;;;7.77;4.10;;;13.70;42.70;;;;;;5028717;28;46448;-68
2023/03/24 08:27:55;;;;;;;7.33;3.90;;;13.70;42.70;;;;;;5028300;28;46480;-68
2023/03/24 08:30:24;;;;;;;8.10;4.17;;;13.70;42.90;;;;;;5029378;28;46152;-68
2023/03/24 08:33:00;;;;;;;8.63;4.60;;;13.70;42.90;;;;;;5031767;28;46342;-68
2023/03/24 08:35:37;;;;;;;5.60;4.07;;;13.70;43.10;;;;;;5029569;28;46390;-68
2023/03/24 08:38:03;;;;;;;7.13;3.50;;;13.80;42.90;;;;;;5027641;28;46384;-67
2023/03/24 08:40:30;;;;;;;12.27;4.60;;;13.90;42.50;;;;;;5028719;28;46925;-67
2023/03/24 08:42:59;;;;;;;6.80;4.00;;;13.90;42.40;;;;;;5026059;28;46481;-65
2023/03/24 08:45:29;;;;;;;6.03;3.50;;;14.00;42.50;;;;;;5024152;28;46414;-68
2023/03/24 08:47:57;;;;;;;7.97;4.57;;;14.00;42.60;;;;;;5033425;28;46717;-67
2023/03/24 08:50:26;;;;;;;6.70;4.10;;;14.10;42.70;;;;;;5034540;28;46178;-67
2023/03/24 08:52:53;;;;;;;5.20;3.83;;;14.10;42.80;;;;;;5033883;28;45842;-64
2023/03/24 08:55:23;;;;;;;5.80;3.60;;;14.00;43.30;;;;;;5032550;28;47195;-65
2023/03/24 08:57:49;;;;;;;3.47;2.20;;;14.00;43.80;;;;;;5026933;28;46632;-64
2023/03/24 09:00:17;;;;;;;7.40;3.87;;;13.90;44.40;;;;;;5029208;28;47192;-64
2023/03/24 09:02:45;;;;;;;5.40;3.43;;;13.80;44.90;;;;;;5026820;28;46383;-64
2023/03/24 09:05:12;;;;;;;5.70;2.93;;;13.80;45.00;;;;;;5028494;28;46477;-64
2023/03/24 09:07:38;;;;;;;6.63;3.23;;;13.70;45.90;;;;;;5028908;28;46655;-63
2023/03/24 09:10:06;;;;;;;9.30;3.40;;;13.60;45.80;;;;;;5026756;28;47069;-64
2023/03/24 09:12:33;;;;;;;9.03;3.50;;;13.50;46.40;;;;;;5030405;28;46481;-65
2023/03/24 09:14:58;;;;;;;6.97;3.70;;;13.60;46.10;;;;;;5028692;28;46646;-64
2023/03/24 09:17:24;;;;;;;7.60;3.90;;;13.60;46.10;;;;;;5029626;28;46511;-64
2023/03/24 09:19:50;;;;;;;5.60;3.40;;;13.60;46.40;;;;;;5028819;28;46512;-64
2023/03/24 09:22:15;;;;;;;5.63;3.37;;;13.50;47.60;;;;;;5028341;28;46604;-67
2023/03/24 09:24:43;;;;;;;8.30;4.10;;;13.40;47.30;;;;;;5026351;28;46464;-65
2023/03/24 09:27:09;;;;;;;6.90;3.77;;;13.50;47.30;;;;;;5025178;28;45825;-65
2023/03/24 09:29:34;;;;;;;6.50;4.10;;;13.50;47.60;;;;;;5029013;28;46680;-66
2023/03/24 09:32:00;;;;;;;6.93;3.50;;;13.60;47.40;;;;;;5029616;28;46078;-66
2023/03/24 09:34:26;;;;;;;5.87;3.57;;;13.70;47.10;;;;;;5026771;28;46347;-66
2023/03/24 09:36:51;;;;;;;6.43;3.53;;;13.90;46.80;;;;;;5025498;28;46502;-66
2023/03/24 09:39:17;;;;;;;7.63;3.53;;;14.00;46.50;;;;;;5031259;28;47344;-66
2023/03/24 09:41:47;;;;;;;5.37;3.40;;;14.10;46.10;;;;;;5027236;28;46556;-65
2023/03/24 09:44:32;;;;;;;6.10;3.83;;;14.10;47.00;;;;;;5025040;28;46429;-66
2023/03/24 09:47:26;;;;;;;6.43;3.57;;;14.00;47.60;;;;;;5025813;28;46276;-65
2023/03/24 09:49:54;;;;;;;6.13;3.50;;;14.00;47.50;;;;;;5027776;28;46472;-65
2023/03/24 09:52:30;;;;;;;6.57;4.03;;;14.00;47.70;;;;;;5026438;28;46413;-65
2023/03/24 09:54:58;;;;;;;7.47;3.70;;;14.10;47.60;;;;;;5026601;28;46535;-66
2023/03/24 09:57:36;;;;;;;4.93;3.00;;;14.00;47.90;;;;;;5024217;28;46638;-64
2023/03/24 10:00:16;;;;;;;4.80;3.60;;;14.10;48.40;;;;;;5023888;28;46713;-65
2023/03/24 10:02:42;;;;;;;5.33;2.97;;;14.00;48.40;;;;;;5027627;28;46694;-64
2023/03/24 10:05:18;;;;;;;5.33;3.23;;;13.90;48.80;;;;;;5028286;28;46408;-65
2023/03/24 10:07:58;;;;;;;4.83;2.60;;;13.90;49.10;;;;;;5022916;28;46511;-65
2023/03/24 10:10:37;;;;;;;4.43;2.73;;;13.50;51.90;;;;;;5024048;28;46721;-66
2023/03/24 10:13:07;;;;;;;5.67;2.80;;;13.70;51.60;;;;;;5030759;28;46477;-67
2023/03/24 10:15:50;;;;;;;5.70;3.07;;;14.00;50.20;;;;;;5025205;28;46437;-66
2023/03/24 10:18:58;;;;;;;12.60;2.90;;;14.30;49.10;;;;;;5028217;28;46476;-65
2023/03/24 10:21:26;;;;;;;5.03;3.00;;;14.60;48.00;;;;;;5004299;28;46469;-67
2023/03/24 10:24:04;;;;;;;5.43;2.90;;;14.80;47.30;;;;;;5007451;28;46654;-67
2023/03/24 10:26:38;;;;;;;7.03;3.07;;;15.00;46.60;;;;;;5016024;28;46670;-67
2023/03/24 10:29:33;;;;;;;4.57;2.93;;;15.20;46.30;;;;;;5028674;28;45937;-67
2023/03/24 10:32:10;;;;;;;3.90;2.70;;;15.40;45.70;;;;;;5027693;28;47463;-67
2023/03/24 10:34:39;;;;;;;5.53;3.03;;;15.40;45.30;;;;;;5025592;28;46327;-66
2023/03/24 10:37:04;;;;;;;6.37;2.70;;;15.50;44.80;;;;;;5028990;28;46506;-66
2023/03/24 10:39:31;;;;;;;4.50;2.90;;;15.50;44.60;;;;;;5025614;28;46460;-68
2023/03/24 10:41:59;;;;;;;3.57;2.40;;;15.40;44.80;;;;;;5022982;28;46477;-66
2023/03/24 10:44:26;;;;;;;5.73;2.83;;;15.30;44.90;;;;;;5030626;28;46358;-65
2023/03/24 10:46:55;;;;;;;4.73;2.47;;;15.20;45.20;;;;;;5026680;28;45961;-67
2023/03/24 10:49:22;;;;;;;8.40;2.60;;;15.10;45.40;;;;;;5027058;28;46393;-66
2023/03/24 10:51:55;;;;;;;5.93;2.50;;;15.00;45.60;;;;;;5027305;28;47121;-67
2023/03/24 10:54:25;;;;;;;5.27;2.37;;;14.90;45.60;;;;;;5029008;28;46460;-65
2023/03/24 10:56:57;;;;;;;6.87;2.90;;;15.00;45.40;;;;;;5028709;28;46488;-67
2023/03/24 10:59:28;;;;;;;3.50;2.37;;;15.00;45.30;;;;;;5025998;28;46375;-66
2023/03/24 11:01:59;;;;;;;6.23;2.83;;;15.10;45.00;;;;;;5023091;28;47131;-65
2023/03/24 11:04:26;;;;;;;4.10;2.80;;;15.20;44.40;;;;;;5022555;28;46517;-64
2023/03/24 11:07:00;;;;;;;5.00;2.77;;;15.50;43.80;;;;;;5025127;28;46495;-66
2023/03/24 11:09:26;;;;;;;6.27;3.30;;;15.70;43.70;;;;;;5031103;28;46600;-66
2023/03/24 11:11:52;;;;;;;4.30;3.10;;;15.90;43.20;;;;;;5028395;28;46258;-66
2023/03/24 11:14:24;;;;;;;4.80;3.07;;;16.20;43.60;;;;;;5022201;28;46286;-66
2023/03/24 11:16:51;;;;;;;6.03;3.20;;;16.40;41.70;;;;;;5023519;28;46295;-66
2023/03/24 11:19:22;;;;;;;5.50;2.60;;;16.60;41.40;;;;;;5027753;28;46451;-66
2023/03/24 11:21:50;;;;;;;7.00;2.73;;;16.60;41.10;;;;;;5023698;28;46364;-66
2023/03/24 11:24:18;;;;;;;5.83;2.83;;;16.60;40.90;;;;;;5026044;28;45812;-66
2023/03/24 11:26:51;;;;;;;3.80;2.50;;;16.60;40.80;;;;;;5027488;28;45770;-66
2023/03/24 11:29:20;;;;;;;5.60;2.97;;;16.70;40.40;;;;;;5025109;28;46683;-66
2023/03/24 11:31:53;;;;;;;5.40;3.13;;;16.80;40.30;;;;;;5027385;28;46976;-67
2023/03/24 11:34:24;;;;;;;6.47;3.03;;;16.90;39.90;;;;;;5027350;28;46366;-67
2023/03/24 11:37:17;;;;;;;5.10;3.20;;;17.00;39.80;;;;;;5029298;28;46468;-67
2023/03/24 11:39:43;;;;;;;6.53;3.50;;;17.10;39.30;;;;;;5024250;28;46489;-67
2023/03/24 11:42:09;;;;;;;5.30;3.13;;;17.10;39.00;;;;;;5026684;28;46260;-65
2023/03/24 11:44:37;;;;;;;6.27;3.77;;;17.10;38.90;;;;;;5025453;28;45770;-66
2023/03/24 11:47:26;;;;;;;6.33;2.90;;;17.00;38.80;;;;;;5027878;28;45894;-66
2023/03/24 11:49:57;;;;;;;5.27;2.90;;;17.20;38.50;;;;;;5025765;28;46555;-65
2023/03/24 11:52:32;;;;;;;4.13;2.63;;;17.60;37.80;;;;;;5027903;28;47432;-66
2023/03/24 11:54:57;;;;;;;5.77;3.33;;;17.70;37.10;;;;;;5028373;28;46404;-65
2023/03/24 11:57:55;;;;;;;4.63;2.70;;;17.70;36.90;;;;;;5027633;28;46289;-66
2023/03/24 12:00:28;;;;;;;4.20;2.50;;;17.90;36.10;;;;;;5029895;28;46733;-67
2023/03/24 12:03:18;;;;;;;5.23;2.67;;;18.10;35.50;;;;;;5029462;28;46409;-66
2023/03/24 12:05:53;;;;;;;4.63;2.43;;;18.30;34.80;;;;;;5032103;28;47102;-66
2023/03/24 12:08:28;;;;;;;5.70;2.37;;;18.30;34.10;;;;;;5032627;28;46486;-67
2023/03/24 12:11:07;;;;;;;5.10;2.80;;;18.10;34.00;;;;;;5030437;28;46474;-67
2023/03/24 12:13:42;;;;;;;4.43;2.20;;;17.90;33.60;;;;;;5033604;28;47100;-67
2023/03/24 12:16:38;;;;;;;3.90;2.40;;;17.70;34.10;;;;;;5031216;28;45840;-67
2023/03/24 12:19:31;;;;;;;4.50;2.27;;;17.30;34.30;;;;;;5029363;28;45820;-66
2023/03/24 12:22:24;;;;;;;3.10;1.70;;;17.00;35.00;;;;;;5031125;28;46606;-66
2023/03/24 12:25:20;;;;;;;2.60;1.40;;;16.60;35.00;;;;;;5027297;28;49177;-67
2023/03/24 12:28:08;;;;;;;3.60;1.70;;;16.10;36.10;;;;;;5030906;28;46645;-66
2023/03/24 12:31:02;;;;;;;4.57;1.90;;;15.70;37.00;;;;;;5030025;28;45856;-65
2023/03/24 12:33:46;;;;;;;3.37;1.87;;;15.40;37.50;;;;;;5026000;28;46418;-66
2023/03/24 12:36:30;;;;;;;4.10;2.40;;;15.10;38.30;;;;;;5030949;28;46664;-66
2023/03/24 12:39:09;;;;;;;3.90;2.00;;;15.00;38.70;;;;;;5031432;28;46514;-67
2023/03/24 12:41:46;;;;;;;3.90;2.23;;;14.80;39.30;;;;;;5027822;28;46552;-67
2023/03/24 12:44:41;;;;;;;4.30;2.47;;;14.70;39.30;;;;;;5028433;28;46414;-67
2023/03/24 12:47:31;;;;;;;3.20;2.00;;;14.60;39.90;;;;;;5029502;28;46509;-67
2023/03/24 12:50:30;;;;;;;3.20;2.13;;;14.50;40.20;;;;;;5028003;28;46289;-67
2023/03/24 12:53:10;;;;;;;4.50;2.67;;;14.40;41.00;;;;;;5030692;28;46706;-67
2023/03/24 12:55:36;;;;;;;8.30;2.70;;;14.40;41.20;;;;;;5033694;28;46645;-67
2023/03/24 12:58:20;;;;;;;5.80;2.87;;;14.30;41.30;;;;;;5029329;28;47171;-67
2023/03/24 13:00:54;;;;;;;3.17;1.73;;;14.30;41.90;;;;;;5031879;28;46497;-66
2023/03/24 13:03:29;;;;;;;2.90;1.70;;;14.30;41.60;;;;;;5026482;28;46459;-66
2023/03/24 13:05:58;;;;;;;2.80;2.00;;;14.40;41.30;;;;;;5026737;28;46617;-67
2023/03/24 13:08:31;;;;;;;2.50;1.50;;;14.50;41.10;;;;;;5032709;28;47321;-66